Time;durP1;ratioP1;P1;durP2;ratioP2;P2;SDS_P1;SDS_P2;PMS_P1;PMS_P2;Temp;Humidity;BMP_temperature;BMP_pressure;BME280_temperature;BME280_humidity;BME280_pressure;Samples;Min_cycle;Max_cycle;Signal;HPM_P1;HPM_P2
2021/10/17 00:02:20;;;;;;;1.63;1.37;;;6.00;98.20;;;;;;5047118;28;20485;-79
2021/10/17 00:04:48;;;;;;;1.60;1.30;;;6.00;98.20;;;;;;5055980;28;20462;-79
2021/10/17 00:07:15;;;;;;;1.70;1.40;;;5.90;98.20;;;;;;5050644;28;20853;-79
2021/10/17 00:09:42;;;;;;;1.60;1.40;;;5.90;98.20;;;;;;5055535;28;21024;-78
2021/10/17 00:12:11;;;;;;;1.67;1.40;;;5.90;98.20;;;;;;5047406;28;20480;-78
2021/10/17 00:14:38;;;;;;;1.67;1.40;;;6.00;98.20;;;;;;5056112;28;20964;-76
2021/10/17 00:17:06;;;;;;;1.60;1.30;;;6.00;98.20;;;;;;5049799;28;20840;-77
2021/10/17 00:19:33;;;;;;;1.60;1.37;;;6.00;98.20;;;;;;5058096;28;20500;-79
2021/10/17 00:22:01;;;;;;;1.70;1.53;;;6.00;98.20;;;;;;5047857;28;20662;-79
2021/10/17 00:24:28;;;;;;;1.60;1.40;;;6.00;98.20;;;;;;5058038;28;20836;-77
2021/10/17 00:26:55;;;;;;;1.63;1.40;;;6.10;98.20;;;;;;5048150;28;20835;-78
2021/10/17 00:29:21;;;;;;;1.60;1.40;;;6.00;98.20;;;;;;5059528;28;20486;-79
2021/10/17 00:31:48;;;;;;;1.60;1.30;;;6.00;98.20;;;;;;5045652;28;20489;-79
2021/10/17 00:34:16;;;;;;;1.60;1.30;;;6.00;98.20;;;;;;5058815;28;20518;-78
2021/10/17 00:36:42;;;;;;;1.63;1.40;;;6.00;98.20;;;;;;5046698;28;20485;-78
2021/10/17 00:39:10;;;;;;;1.60;1.30;;;6.00;98.20;;;;;;5054599;28;20493;-78
2021/10/17 00:41:38;;;;;;;1.60;1.40;;;6.00;98.20;;;;;;5047680;28;20488;-77
2021/10/17 00:44:05;;;;;;;1.67;1.40;;;6.00;98.20;;;;;;5058726;28;20466;-78
2021/10/17 00:46:32;;;;;;;1.60;1.30;;;6.00;98.20;;;;;;5047457;28;20492;-79
2021/10/17 00:48:59;;;;;;;1.60;1.33;;;6.00;98.20;;;;;;5061456;28;20492;-78
2021/10/17 00:51:26;;;;;;;1.60;1.30;;;5.90;98.20;;;;;;5046455;28;20948;-78
2021/10/17 00:53:55;;;;;;;1.60;1.40;;;5.90;98.20;;;;;;5057319;28;20466;-78
2021/10/17 00:56:23;;;;;;;1.60;1.40;;;5.90;98.20;;;;;;5043608;28;20512;-79
2021/10/17 00:58:50;;;;;;;1.60;1.30;;;5.90;98.20;;;;;;5060001;28;20479;-78
2021/10/17 01:01:17;;;;;;;1.60;1.33;;;5.90;98.20;;;;;;5041253;28;20484;-78
2021/10/17 01:03:43;;;;;;;1.70;1.50;;;5.90;98.20;;;;;;5057276;28;20966;-78
2021/10/17 01:06:12;;;;;;;1.60;1.40;;;5.90;98.20;;;;;;5039957;28;20473;-78
2021/10/17 01:08:39;;;;;;;1.60;1.30;;;5.90;98.20;;;;;;5049913;28;20506;-79
2021/10/17 01:11:08;;;;;;;1.60;1.40;;;5.90;98.20;;;;;;5040209;28;20498;-78
2021/10/17 01:13:37;;;;;;;1.60;1.40;;;5.90;98.20;;;;;;5046644;28;20466;-79
2021/10/17 01:16:04;;;;;;;1.60;1.30;;;5.80;98.20;;;;;;5035538;28;20840;-78
2021/10/17 01:18:31;;;;;;;1.67;1.33;;;5.80;98.20;;;;;;5062638;28;20976;-78
2021/10/17 01:21:00;;;;;;;1.60;1.30;;;5.80;98.20;;;;;;5043734;28;20459;-79
2021/10/17 01:23:27;;;;;;;1.60;1.30;;;5.70;98.20;;;;;;5063778;28;20467;-79
2021/10/17 01:25:54;;;;;;;1.60;1.30;;;5.70;98.20;;;;;;5041869;28;20465;-78
2021/10/17 01:28:21;;;;;;;1.60;1.30;;;5.60;98.20;;;;;;5061846;28;20841;-78
2021/10/17 01:30:48;;;;;;;1.60;1.30;;;5.60;98.20;;;;;;5039630;28;20490;-78
2021/10/17 01:33:15;;;;;;;1.60;1.40;;;5.60;98.20;;;;;;5061913;28;20922;-78
2021/10/17 01:35:42;;;;;;;1.60;1.40;;;5.60;98.20;;;;;;5051108;28;20466;-78
2021/10/17 01:38:10;;;;;;;1.60;1.30;;;5.60;98.20;;;;;;5053135;28;20481;-78
2021/10/17 01:40:38;;;;;;;1.63;1.40;;;5.50;98.20;;;;;;5048933;28;20478;-79
2021/10/17 01:43:06;;;;;;;1.60;1.30;;;5.50;98.20;;;;;;5051942;28;20485;-79
2021/10/17 01:45:32;;;;;;;1.60;1.30;;;5.50;98.20;;;;;;5047905;28;20475;-78
2021/10/17 01:47:59;;;;;;;1.63;1.40;;;5.50;98.20;;;;;;5050692;28;20493;-78
2021/10/17 01:50:26;;;;;;;1.60;1.30;;;5.40;98.20;;;;;;5050484;28;20474;-79
2021/10/17 01:52:53;;;;;;;1.60;1.33;;;5.40;98.20;;;;;;5052646;28;20488;-79
2021/10/17 01:55:21;;;;;;;1.70;1.40;;;5.40;98.20;;;;;;5047284;28;20861;-78
2021/10/17 01:57:48;;;;;;;1.60;1.40;;;5.40;98.20;;;;;;5047351;28;20492;-78
2021/10/17 02:00:15;;;;;;;1.60;1.30;;;5.40;98.20;;;;;;5047438;28;20485;-79
2021/10/17 02:02:42;;;;;;;1.60;1.40;;;5.30;98.20;;;;;;5054528;28;20590;-78
2021/10/17 02:05:09;;;;;;;1.60;1.30;;;5.30;98.20;;;;;;5055488;28;20462;-79
2021/10/17 02:07:36;;;;;;;1.63;1.40;;;5.30;98.20;;;;;;5043752;28;20481;-78
2021/10/17 02:10:03;;;;;;;1.60;1.30;;;5.30;98.20;;;;;;5050786;28;20852;-78
2021/10/17 02:12:31;;;;;;;1.70;1.43;;;5.30;98.20;;;;;;5048011;28;20481;-78
2021/10/17 02:14:59;;;;;;;1.60;1.30;;;5.30;98.20;;;;;;5053385;28;20470;-77
2021/10/17 02:17:30;;;;;;;1.63;1.40;;;5.30;98.20;;;;;;5049440;28;20478;-78
2021/10/17 02:19:56;;;;;;;1.60;1.40;;;5.20;98.20;;;;;;5052984;28;20584;-78
2021/10/17 02:22:23;;;;;;;1.63;1.40;;;5.30;98.20;;;;;;5045964;28;20488;-78
2021/10/17 02:24:50;;;;;;;1.60;1.40;;;5.20;98.20;;;;;;5052154;28;20459;-78
2021/10/17 02:27:17;;;;;;;1.60;1.30;;;5.30;98.20;;;;;;5051745;28;20851;-78
2021/10/17 02:29:45;;;;;;;1.60;1.40;;;5.30;98.20;;;;;;5054107;28;20482;-79
2021/10/17 02:32:11;;;;;;;1.60;1.30;;;5.30;98.20;;;;;;5048603;28;20477;-78
2021/10/17 02:34:38;;;;;;;1.60;1.37;;;5.20;98.20;;;;;;5057160;28;20458;-78
2021/10/17 02:37:05;;;;;;;1.60;1.30;;;5.20;98.20;;;;;;5043714;28;20535;-78
2021/10/17 02:39:32;;;;;;;1.60;1.30;;;5.30;98.20;;;;;;5054170;28;20481;-79
2021/10/17 02:41:58;;;;;;;1.60;1.40;;;5.30;98.20;;;;;;5046467;28;20509;-78
2021/10/17 02:44:25;;;;;;;1.60;1.40;;;5.20;98.20;;;;;;5054278;28;20458;-78
2021/10/17 02:46:53;;;;;;;1.60;1.40;;;5.20;98.20;;;;;;5044542;28;20473;-78
2021/10/17 02:49:20;;;;;;;1.67;1.43;;;5.20;98.20;;;;;;5055599;28;20512;-78
2021/10/17 02:51:46;;;;;;;1.67;1.50;;;5.20;98.20;;;;;;5041010;28;20956;-78
2021/10/17 02:54:13;;;;;;;1.60;1.30;;;5.30;98.20;;;;;;5056253;28;20466;-78
2021/10/17 02:56:40;;;;;;;1.63;1.40;;;5.30;98.20;;;;;;5041966;28;20481;-78
2021/10/17 02:59:07;;;;;;;1.60;1.40;;;5.30;98.20;;;;;;5056921;28;20478;-78
2021/10/17 03:01:33;;;;;;;1.63;1.40;;;5.30;98.20;;;;;;5038811;28;20839;-77
2021/10/17 03:04:01;;;;;;;1.60;1.33;;;5.30;98.20;;;;;;5053335;28;20459;-79
2021/10/17 03:06:28;;;;;;;1.60;1.40;;;5.30;98.20;;;;;;5043429;28;20492;-78
2021/10/17 03:08:55;;;;;;;1.60;1.40;;;5.30;98.20;;;;;;5051039;28;20807;-78
2021/10/17 03:11:22;;;;;;;1.60;1.40;;;5.30;98.20;;;;;;5040557;28;20476;-77
2021/10/17 03:13:49;;;;;;;1.60;1.30;;;5.30;98.20;;;;;;5052732;28;20470;-79
2021/10/17 03:16:16;;;;;;;1.60;1.40;;;5.30;98.20;;;;;;5040935;28;20469;-78
2021/10/17 03:18:43;;;;;;;1.60;1.40;;;5.30;98.20;;;;;;5056817;28;20486;-79
2021/10/17 03:21:11;;;;;;;1.60;1.40;;;5.30;98.20;;;;;;5039805;28;20472;-79
2021/10/17 03:23:38;;;;;;;1.60;1.40;;;5.30;98.20;;;;;;5057433;28;20848;-79
2021/10/17 03:26:04;;;;;;;1.60;1.33;;;5.30;98.20;;;;;;5042160;28;20462;-79
2021/10/17 03:28:31;;;;;;;1.70;1.40;;;5.30;98.20;;;;;;5060987;28;20465;-78
2021/10/17 03:30:58;;;;;;;1.70;1.53;;;5.20;98.20;;;;;;5038005;28;20946;-79
2021/10/17 03:33:24;;;;;;;1.60;1.40;;;5.20;98.20;;;;;;5060325;28;20458;-78
2021/10/17 03:35:51;;;;;;;1.63;1.50;;;5.20;98.20;;;;;;5038995;28;20618;-78
2021/10/17 03:38:19;;;;;;;1.60;1.43;;;5.20;98.20;;;;;;5065683;28;20586;-79
2021/10/17 03:40:46;;;;;;;1.60;1.37;;;5.20;98.20;;;;;;5041275;28;20490;-79
2021/10/17 03:43:13;;;;;;;1.60;1.40;;;5.20;98.20;;;;;;5064293;28;20470;-79
2021/10/17 03:45:40;;;;;;;1.70;1.50;;;5.20;98.20;;;;;;5049581;28;20473;-78
2021/10/17 03:48:06;;;;;;;1.60;1.30;;;5.20;98.20;;;;;;5060098;22;20504;-77
2021/10/17 03:50:33;;;;;;;1.63;1.43;;;5.20;98.20;;;;;;5026313;28;20472;-78
2021/10/17 03:53:00;;;;;;;1.60;1.40;;;5.20;98.20;;;;;;5022617;28;20483;-77
2021/10/17 03:55:29;;;;;;;1.67;1.40;;;5.20;98.20;;;;;;5032011;28;20483;-78
2021/10/17 03:57:56;;;;;;;1.60;1.40;;;5.10;98.20;;;;;;5028375;28;20483;-78
2021/10/17 04:00:24;;;;;;;1.60;1.40;;;5.10;98.20;;;;;;5026631;28;20460;-77
2021/10/17 04:02:52;;;;;;;1.60;1.40;;;5.10;98.20;;;;;;5027473;28;20483;-77
2021/10/17 04:05:18;;;;;;;1.60;1.40;;;5.10;98.20;;;;;;5028044;28;20547;-77
2021/10/17 04:07:45;;;;;;;1.60;1.40;;;5.10;98.20;;;;;;5032377;28;20479;-76
2021/10/17 04:10:12;;;;;;;1.63;1.40;;;5.10;98.20;;;;;;5032782;28;20509;-78
2021/10/17 04:12:41;;;;;;;1.60;1.40;;;5.00;98.20;;;;;;5035550;28;20490;-76
2021/10/17 04:15:08;;;;;;;1.67;1.40;;;5.00;98.20;;;;;;5024273;28;20476;-76
2021/10/17 04:17:35;;;;;;;1.60;1.40;;;5.00;98.20;;;;;;5010480;28;20491;-77
2021/10/17 04:20:02;;;;;;;1.60;1.40;;;4.90;98.20;;;;;;5011688;28;20468;-77
2021/10/17 04:22:30;;;;;;;1.60;1.40;;;4.90;98.20;;;;;;5004041;28;20479;-76
2021/10/17 04:24:58;;;;;;;1.60;1.50;;;4.90;98.20;;;;;;5011748;28;20463;-76
2021/10/17 04:27:34;;;;;;;1.60;1.40;;;4.90;98.20;;;;;;5012351;28;20486;-77
2021/10/17 04:30:07;;;;;;;1.60;1.40;;;4.90;98.20;;;;;;5011063;28;20456;-77
2021/10/17 04:32:35;;;;;;;1.60;1.40;;;4.90;98.20;;;;;;5026711;28;20471;-77
2021/10/17 04:35:07;;;;;;;1.63;1.40;;;4.90;98.20;;;;;;5018408;28;20468;-77
2021/10/17 04:37:35;;;;;;;1.70;1.50;;;4.80;98.20;;;;;;5018679;28;20588;-77
2021/10/17 04:40:05;;;;;;;1.67;1.40;;;4.80;98.20;;;;;;5022808;28;20467;-77
2021/10/17 04:42:45;;;;;;;2.63;2.43;;;4.80;98.20;;;;;;5022057;28;20499;-76
2021/10/17 04:45:24;;;;;;;1.60;1.33;;;4.80;98.20;;;;;;5016318;28;20468;-77
2021/10/17 04:47:55;;;;;;;1.70;1.50;;;4.80;98.20;;;;;;5015784;28;21028;-77
2021/10/17 04:50:23;;;;;;;1.63;1.40;;;4.70;98.20;;;;;;5015849;28;20774;-76
2021/10/17 04:52:55;;;;;;;1.60;1.40;;;4.70;98.20;;;;;;5017940;28;20486;-77
2021/10/17 04:55:29;;;;;;;1.60;1.40;;;4.70;98.20;;;;;;5022380;28;20456;-77
2021/10/17 04:57:57;;;;;;;1.60;1.37;;;4.70;98.20;;;;;;5022735;28;21067;-77
2021/10/17 05:00:41;;;;;;;1.60;1.40;;;4.60;98.20;;;;;;5014105;28;21015;-78
2021/10/17 05:03:26;;;;;;;1.70;1.50;;;4.60;98.20;;;;;;5018960;28;20565;-77
2021/10/17 05:05:55;;;;;;;1.60;1.40;;;4.60;98.20;;;;;;5004897;28;20496;-77
2021/10/17 05:08:27;;;;;;;1.63;1.40;;;4.60;98.20;;;;;;5030053;28;20479;-77
2021/10/17 05:11:07;;;;;;;2.43;2.23;;;4.60;98.20;;;;;;5005413;28;20514;-77
2021/10/17 05:13:41;;;;;;;1.60;1.40;;;4.60;98.20;;;;;;5021424;28;20490;-77
2021/10/17 05:16:18;;;;;;;1.60;1.40;;;4.60;98.20;;;;;;5008506;28;22469;-77
2021/10/17 05:18:58;;;;;;;1.60;1.40;;;4.70;98.20;;;;;;5032725;28;20484;-77
2021/10/17 05:21:34;;;;;;;1.60;1.40;;;4.70;98.20;;;;;;5001704;28;20563;-78
2021/10/17 05:24:07;;;;;;;1.63;1.30;;;4.70;98.20;;;;;;5024197;28;20876;-78
2021/10/17 05:26:35;;;;;;;1.60;1.43;;;4.70;98.20;;;;;;5011314;28;20517;-78
2021/10/17 05:29:17;;;;;;;1.63;1.50;;;4.70;98.20;;;;;;5016380;28;21047;-78
2021/10/17 05:31:49;;;;;;;1.60;1.40;;;4.70;98.20;;;;;;5010522;28;20668;-78
2021/10/17 05:34:24;;;;;;;1.70;1.50;;;4.70;98.20;;;;;;5020267;28;20459;-78
2021/10/17 05:39:52;;;;;;;1.60;1.30;;;4.70;98.20;;;;;;5005799;28;20492;-77
2021/10/17 05:42:29;;;;;;;1.60;1.40;;;4.70;98.20;;;;;;4985851;28;20502;-77
2021/10/17 05:45:06;;;;;;;1.70;1.50;;;4.70;98.20;;;;;;5011518;28;20460;-77
2021/10/17 05:47:48;;;;;;;1.60;1.40;;;4.70;98.20;;;;;;5017040;28;20567;-77
2021/10/17 05:53:16;;;;;;;1.60;1.30;;;4.70;98.20;;;;;;5016836;28;20539;-77
2021/10/17 05:55:59;;;;;;;1.70;1.57;;;4.80;98.20;;;;;;5015328;28;20907;-78
2021/10/17 06:04:26;;;;;;;1.63;1.40;;;4.80;98.20;;;;;;5007573;28;20464;-78
2021/10/17 06:09:56;;;;;;;1.63;1.37;;;4.90;98.20;;;;;;5015880;28;20964;-79
2021/10/17 06:12:38;;;;;;;1.60;1.40;;;4.90;98.20;;;;;;5009019;28;20494;-78
2021/10/17 06:15:34;;;;;;;1.60;1.30;;;4.90;98.20;;;;;;5013196;28;20467;-79
2021/10/17 06:18:20;;;;;;;;;;;;;;;;;;;;;
2021/10/17 06:30:37;;;;;;;1.70;1.40;;;5.10;98.20;;;;;;4994572;28;20488;-78
2021/10/17 06:36:12;;;;;;;1.63;1.40;;;5.20;98.20;;;;;;5002947;28;20465;-76
2021/10/17 06:38:44;;;;;;;1.60;1.40;;;5.30;98.20;;;;;;5026363;28;20487;-77
2021/10/17 06:41:11;;;;;;;1.60;1.40;;;5.40;98.20;;;;;;5009198;28;20478;-77
2021/10/17 06:43:39;;;;;;;1.63;1.30;;;5.40;98.20;;;;;;5024507;28;20849;-78
2021/10/17 06:46:06;;;;;;;1.60;1.40;;;5.50;98.20;;;;;;5003004;28;20476;-78
2021/10/17 06:48:34;;;;;;;1.63;1.40;;;5.60;98.20;;;;;;5020647;28;20486;-79
2021/10/17 06:51:01;;;;;;;1.67;1.40;;;5.70;98.20;;;;;;4999291;28;20514;-79
2021/10/17 06:53:28;;;;;;;1.63;1.40;;;5.70;98.20;;;;;;5020955;28;20920;-79
2021/10/17 06:55:55;;;;;;;1.63;1.30;;;5.80;98.20;;;;;;5000951;28;20468;-77
2021/10/17 06:58:22;;;;;;;1.60;1.30;;;5.90;98.20;;;;;;5021154;28;20483;-77
2021/10/17 07:00:50;;;;;;;1.60;1.40;;;5.90;98.20;;;;;;5003801;28;20507;-77
2021/10/17 07:03:17;;;;;;;1.60;1.30;;;6.00;98.20;;;;;;5022893;28;20468;-77
2021/10/17 07:05:43;;;;;;;1.63;1.40;;;6.10;98.20;;;;;;5008688;28;20856;-77
2021/10/17 07:08:10;;;;;;;1.60;1.30;;;6.10;98.20;;;;;;5013021;28;20515;-78
2021/10/17 07:10:37;;;;;;;1.67;1.40;;;6.20;98.20;;;;;;5009782;28;20460;-77
2021/10/17 07:13:04;;;;;;;1.60;1.30;;;6.30;98.20;;;;;;4983892;28;21129;-77
2021/10/17 07:15:31;;;;;;;1.70;1.40;;;6.40;98.20;;;;;;5004908;28;20476;-77
2021/10/17 07:17:59;;;;;;;1.60;1.33;;;6.60;98.20;;;;;;4998161;28;20519;-77
2021/10/17 07:20:28;;;;;;;1.70;1.40;;;6.80;98.20;;;;;;5007650;28;20762;-77
2021/10/17 07:22:56;;;;;;;1.60;1.30;;;6.90;98.20;;;;;;5009211;28;20479;-77
2021/10/17 07:25:23;;;;;;;1.60;1.40;;;7.10;98.20;;;;;;5005513;28;20982;-78
2021/10/17 07:27:52;;;;;;;1.60;1.30;;;7.20;98.20;;;;;;5017282;28;20487;-78
2021/10/17 07:30:19;;;;;;;1.60;1.30;;;7.20;98.20;;;;;;5005413;28;21003;-77
2021/10/17 07:32:48;;;;;;;1.60;1.20;;;7.30;98.20;;;;;;5010454;28;20479;-77
2021/10/17 07:35:16;;;;;;;1.60;1.23;;;7.30;98.20;;;;;;5004920;28;20759;-77
2021/10/17 07:37:43;;;;;;;1.60;1.30;;;7.40;98.20;;;;;;5013470;28;20498;-77
2021/10/17 07:40:10;;;;;;;1.60;1.23;;;7.50;98.20;;;;;;5009274;28;20811;-77
2021/10/17 07:42:39;;;;;;;1.70;1.40;;;7.60;98.20;;;;;;5011761;28;20580;-76
2021/10/17 07:45:07;;;;;;;1.60;1.23;;;7.60;98.20;;;;;;5005051;28;20480;-77
2021/10/17 07:47:34;;;;;;;1.60;1.20;;;7.70;98.20;;;;;;5011283;28;20487;-76
2021/10/17 07:50:01;;;;;;;1.60;1.20;;;7.80;98.20;;;;;;5006730;28;20591;-78
2021/10/17 07:52:34;;;;;;;1.60;1.30;;;7.90;98.20;;;;;;5009193;28;20491;-77
2021/10/17 07:55:01;;;;;;;1.60;1.20;;;7.90;98.20;;;;;;5012553;28;20943;-77
2021/10/17 07:57:28;;;;;;;1.60;1.30;;;8.00;98.20;;;;;;5008145;28;20495;-77
2021/10/17 07:59:54;;;;;;;1.60;1.20;;;8.00;98.20;;;;;;5010698;28;20468;-77
2021/10/17 08:02:21;;;;;;;1.60;1.20;;;8.10;98.20;;;;;;5007691;28;20514;-77
2021/10/17 08:04:49;;;;;;;1.60;1.20;;;8.20;98.20;;;;;;5012237;28;20459;-76
2021/10/17 08:07:17;;;;;;;1.60;1.20;;;8.30;98.20;;;;;;5007872;28;20857;-76
2021/10/17 08:09:45;;;;;;;1.60;1.20;;;8.50;98.20;;;;;;5014602;28;20468;-76
2021/10/17 08:12:12;;;;;;;1.60;1.20;;;8.60;98.20;;;;;;4999192;28;20476;-76
2021/10/17 08:14:39;;;;;;;1.60;1.20;;;8.70;98.20;;;;;;5009656;28;20730;-76
2021/10/17 08:17:06;;;;;;;1.60;1.20;;;8.70;98.20;;;;;;5006897;28;21034;-76
2021/10/17 08:19:33;;;;;;;1.60;1.20;;;8.80;98.20;;;;;;5015189;28;20487;-76
2021/10/17 08:21:59;;;;;;;1.60;1.10;;;8.90;98.20;;;;;;5008108;28;20961;-76
2021/10/17 08:24:26;;;;;;;1.60;1.17;;;9.00;98.20;;;;;;5016383;28;20472;-76
2021/10/17 08:26:55;;;;;;;1.60;1.10;;;9.10;98.20;;;;;;5008910;28;20479;-76
2021/10/17 08:29:21;;;;;;;1.60;1.30;;;9.20;98.20;;;;;;5017266;28;20854;-76
2021/10/17 08:31:48;;;;;;;1.60;1.30;;;9.30;98.20;;;;;;5000505;28;20484;-76
2021/10/17 08:34:15;;;;;;;1.60;1.20;;;9.40;98.20;;;;;;5018077;28;20865;-76
2021/10/17 08:36:42;;;;;;;1.60;1.10;;;9.40;98.20;;;;;;5006188;28;20483;-77
2021/10/17 08:39:09;;;;;;;1.60;1.10;;;9.50;98.20;;;;;;5023230;28;21012;-77
2021/10/17 08:41:36;;;;;;;1.60;1.10;;;9.50;98.20;;;;;;5006723;28;20478;-77
2021/10/17 08:44:05;;;;;;;1.60;1.17;;;9.60;98.20;;;;;;5016186;28;20504;-77
2021/10/17 08:46:33;;;;;;;1.60;1.20;;;9.70;98.20;;;;;;5005022;28;20891;-77
2021/10/17 08:49:03;;;;;;;1.60;1.20;;;9.80;98.20;;;;;;5016740;28;20648;-77
2021/10/17 08:51:29;;;;;;;1.60;1.10;;;9.80;98.20;;;;;;5004391;28;20561;-77
2021/10/17 08:53:56;;;;;;;1.60;1.20;;;9.90;98.20;;;;;;5019212;28;21041;-77
2021/10/17 08:56:23;;;;;;;1.60;1.10;;;10.00;98.20;;;;;;4997506;28;20576;-76
2021/10/17 08:58:50;;;;;;;1.60;1.20;;;10.10;98.20;;;;;;5011295;28;20485;-78
2021/10/17 09:01:18;;;;;;;1.60;1.20;;;10.20;98.20;;;;;;4995262;28;21144;-78
2021/10/17 09:03:53;;;;;;;2.80;2.60;;;10.20;98.20;;;;;;5014916;28;20460;-78
2021/10/17 09:06:22;;;;;;;1.60;1.10;;;10.30;98.20;;;;;;4997733;28;20956;-78
2021/10/17 09:09:04;;;;;;;1.60;1.10;;;10.40;98.20;;;;;;5009619;28;20489;-78
2021/10/17 09:11:46;;;;;;;1.93;1.63;;;10.50;98.20;;;;;;4998655;28;20965;-78
2021/10/17 09:14:15;;;;;;;1.60;1.17;;;10.60;98.20;;;;;;5012161;28;20814;-79
2021/10/17 09:16:44;;;;;;;1.60;1.10;;;10.70;98.20;;;;;;5002962;28;20998;-78
2021/10/17 09:19:16;;;;;;;1.60;1.00;;;10.80;98.20;;;;;;5016287;28;20484;-78
2021/10/17 09:21:56;;;;;;;1.57;1.03;;;10.80;98.20;;;;;;5002422;28;20491;-78
2021/10/17 09:24:28;;;;;;;1.60;1.00;;;10.90;98.20;;;;;;5010767;28;20471;-78
2021/10/17 09:27:13;;;;;;;3.87;3.57;;;11.00;98.20;;;;;;4998228;28;20495;-76
2021/10/17 09:29:42;;;;;;;1.60;1.10;;;11.10;98.20;;;;;;5008778;28;20471;-76
2021/10/17 09:32:18;;;;;;;2.33;2.13;;;11.30;98.20;;;;;;5001472;28;20495;-75
2021/10/17 09:34:57;;;;;;;1.60;1.00;;;11.40;98.20;;;;;;5008015;28;20487;-76
2021/10/17 09:37:31;;;;;;;1.60;1.10;;;11.50;98.20;;;;;;5006222;28;21052;-76
2021/10/17 09:40:07;;;;;;;1.60;1.00;;;11.50;98.20;;;;;;5007957;28;20467;-75
2021/10/17 09:42:39;;;;;;;1.60;1.10;;;11.60;98.20;;;;;;5005635;28;20482;-77
2021/10/17 09:45:20;;;;;;;1.60;1.10;;;11.70;98.20;;;;;;5004345;28;20802;-77
2021/10/17 09:47:48;;;;;;;1.50;1.00;;;11.80;98.20;;;;;;5008419;28;20491;-78
2021/10/17 09:50:16;;;;;;;1.53;1.00;;;11.80;98.20;;;;;;5000996;28;20472;-77
2021/10/17 09:53:00;;;;;;;1.60;1.10;;;11.80;98.20;;;;;;4990977;28;21346;-77
2021/10/17 09:55:29;;;;;;;1.60;1.07;;;11.90;98.20;;;;;;5027606;22;20488;-77
2021/10/17 09:57:56;;;;;;;1.53;1.00;;;12.10;98.20;;;;;;5015093;28;20495;-77
2021/10/17 10:00:23;;;;;;;1.60;1.00;;;12.20;98.20;;;;;;5022587;28;20627;-77
2021/10/17 10:02:53;;;;;;;1.53;1.00;;;12.30;98.20;;;;;;5019419;28;20487;-77
2021/10/17 10:05:24;;;;;;;1.57;1.00;;;12.40;98.20;;;;;;5011008;28;20464;-77
2021/10/17 10:07:52;;;;;;;1.60;1.00;;;12.50;98.20;;;;;;5016947;28;20511;-76
2021/10/17 10:10:20;;;;;;;1.53;1.00;;;12.60;98.20;;;;;;5011214;28;20469;-77
2021/10/17 10:12:48;;;;;;;1.60;1.10;;;12.70;98.20;;;;;;5018305;28;20821;-76
2021/10/17 10:15:16;;;;;;;1.60;1.00;;;12.80;98.20;;;;;;5009780;28;20496;-76
2021/10/17 10:17:44;;;;;;;1.57;1.00;;;12.90;98.20;;;;;;5010807;28;21020;-75
2021/10/17 10:20:13;;;;;;;1.53;1.00;;;13.00;98.20;;;;;;5011010;28;20468;-76
2021/10/17 10:22:40;;;;;;;1.60;1.03;;;13.10;98.20;;;;;;5016442;28;20497;-77
2021/10/17 10:25:10;;;;;;;1.50;1.00;;;13.10;98.20;;;;;;5012802;28;20460;-77
2021/10/17 10:27:38;;;;;;;1.50;1.00;;;13.30;98.20;;;;;;5015520;28;20495;-76
2021/10/17 10:30:24;;;;;;;1.57;1.00;;;13.30;98.20;;;;;;5014574;28;20932;-76
2021/10/17 10:33:12;;;;;;;1.50;1.00;;;13.40;98.20;;;;;;5016410;28;20474;-76
2021/10/17 10:36:04;;;;;;;1.53;1.00;;;13.40;98.20;;;;;;5006627;28;20480;-76
2021/10/17 10:39:06;;;;;;;1.57;1.00;;;13.50;96.40;;;;;;4996288;28;20610;-76
2021/10/17 10:41:45;;;;;;;1.53;1.00;;;13.50;96.70;;;;;;4912724;28;20597;-77
2021/10/17 10:44:13;;;;;;;1.50;0.90;;;13.50;97.00;;;;;;5003051;28;20460;-76
2021/10/17 10:46:41;;;;;;;1.50;1.00;;;13.50;97.10;;;;;;5003104;28;20492;-77
2021/10/17 10:49:08;;;;;;;1.50;1.00;;;13.50;97.90;;;;;;5017344;28;20938;-75
2021/10/17 10:51:41;;;;;;;1.50;0.97;;;13.60;98.00;;;;;;5006352;28;20514;-76
2021/10/17 10:54:29;;;;;;;1.57;1.00;;;13.60;98.20;;;;;;5031919;28;20531;-75
2021/10/17 10:56:57;;;;;;;1.57;1.00;;;13.70;98.00;;;;;;5004868;28;20482;-75
2021/10/17 10:59:28;;;;;;;1.53;1.00;;;13.70;96.80;;;;;;5021180;28;20470;-77
2021/10/17 11:02:10;;;;;;;2.77;1.80;;;13.80;98.20;;;;;;5015623;28;20486;-77
2021/10/17 11:05:07;;;;;;;1.53;1.00;;;13.80;97.40;;;;;;5019196;28;20460;-76
2021/10/17 11:07:39;;;;;;;1.50;1.00;;;13.80;96.80;;;;;;5012681;28;20490;-77
2021/10/17 11:10:47;;;;;;;1.57;1.00;;;13.80;98.10;;;;;;5018381;28;20559;-76
2021/10/17 11:13:34;;;;;;;1.53;1.00;;;13.90;98.20;;;;;;5002877;28;20842;-75
2021/10/17 11:16:02;;;;;;;1.57;1.00;;;14.00;98.20;;;;;;4996801;28;20480;-75
2021/10/17 11:18:31;;;;;;;1.60;1.10;;;14.20;98.20;;;;;;5026781;28;20464;-77
2021/10/17 11:20:59;;;;;;;1.60;1.07;;;14.30;98.20;;;;;;4996410;28;20480;-76
2021/10/17 11:23:31;;;;;;;1.53;1.00;;;14.30;95.70;;;;;;5018962;28;20467;-78
2021/10/17 11:25:59;;;;;;;1.50;1.00;;;14.20;96.00;;;;;;4994834;28;20487;-77
2021/10/17 11:28:28;;;;;;;1.50;1.00;;;14.30;98.20;;;;;;5007225;28;20479;-78
2021/10/17 11:31:10;;;;;;;1.53;1.00;;;14.30;95.10;;;;;;4995705;28;20479;-79
2021/10/17 11:33:38;;;;;;;1.53;1.00;;;14.40;94.30;;;;;;5021339;28;20475;-77
2021/10/17 11:36:05;;;;;;;1.53;0.90;;;14.50;96.00;;;;;;5000543;28;20495;-77
2021/10/17 11:38:34;;;;;;;1.50;1.00;;;14.60;95.00;;;;;;5026052;28;20464;-76
2021/10/17 11:41:03;;;;;;;1.53;1.00;;;14.70;93.70;;;;;;5010562;28;20581;-77
2021/10/17 11:43:38;;;;;;;1.53;0.90;;;14.80;93.80;;;;;;5033010;28;20468;-78
2021/10/17 11:46:07;;;;;;;1.53;1.00;;;14.90;92.40;;;;;;5002799;28;20490;-77
2021/10/17 11:48:35;;;;;;;1.50;0.93;;;15.00;91.00;;;;;;5023945;28;20460;-77
2021/10/17 11:51:06;;;;;;;1.50;1.00;;;15.00;90.70;;;;;;5007407;28;20463;-78
2021/10/17 11:53:35;;;;;;;1.57;1.00;;;15.00;92.40;;;;;;5032255;28;20459;-77
2021/10/17 11:56:03;;;;;;;1.57;1.00;;;15.10;91.80;;;;;;5015819;28;20491;-77
2021/10/17 11:58:31;;;;;;;1.50;1.00;;;15.20;91.70;;;;;;5024367;28;20460;-76
2021/10/17 12:01:05;;;;;;;1.53;0.90;;;15.40;91.30;;;;;;5007496;28;20465;-76
2021/10/17 12:03:33;;;;;;;1.53;1.00;;;15.50;90.00;;;;;;5035003;28;20960;-77
2021/10/17 12:06:02;;;;;;;1.50;1.00;;;15.50;90.80;;;;;;5000418;28;21064;-77
2021/10/17 12:08:32;;;;;;;1.50;1.00;;;15.50;90.00;;;;;;5028525;28;20558;-76
2021/10/17 12:11:02;;;;;;;1.53;1.00;;;15.50;90.00;;;;;;5007190;28;20464;-78
2021/10/17 12:13:30;;;;;;;1.57;1.00;;;15.50;90.40;;;;;;5042853;28;20471;-76
2021/10/17 12:16:06;;;;;;;1.80;1.10;;;15.60;90.40;;;;;;5010609;28;20491;-77
2021/10/17 12:18:33;;;;;;;1.57;1.00;;;15.70;91.90;;;;;;5030970;28;20467;-78
2021/10/17 12:21:01;;;;;;;1.53;0.90;;;15.70;89.80;;;;;;5005275;28;20471;-78
2021/10/17 12:23:29;;;;;;;1.57;1.00;;;15.70;89.20;;;;;;5035446;28;20894;-78
2021/10/17 12:25:56;;;;;;;1.57;1.00;;;15.80;89.60;;;;;;5001655;28;20503;-77
2021/10/17 12:28:24;;;;;;;1.53;1.00;;;15.90;89.30;;;;;;5030730;28;20954;-75
2021/10/17 12:30:52;;;;;;;1.57;1.00;;;15.90;88.50;;;;;;5005400;28;20466;-76
2021/10/17 12:33:31;;;;;;;1.50;0.90;;;16.00;88.90;;;;;;5032065;28;20838;-76
2021/10/17 12:36:00;;;;;;;1.50;1.00;;;16.10;88.90;;;;;;4999501;28;20938;-77
2021/10/17 12:38:32;;;;;;;1.60;1.10;;;16.10;88.10;;;;;;5026346;28;20459;-77
2021/10/17 12:41:00;;;;;;;1.50;1.00;;;16.10;87.20;;;;;;5018590;28;20490;-78
2021/10/17 12:43:30;;;;;;;1.53;1.00;;;16.10;86.30;;;;;;5035210;28;20463;-77
2021/10/17 12:46:10;;;;;;;1.50;0.90;;;16.20;87.00;;;;;;5007356;28;20495;-76
2021/10/17 12:48:38;;;;;;;1.57;0.93;;;16.20;87.10;;;;;;5037735;28;20491;-75
2021/10/17 12:51:30;;;;;;;1.57;1.00;;;16.20;86.70;;;;;;5017252;28;22467;-76
2021/10/17 12:54:09;;;;;;;1.50;0.90;;;16.20;87.30;;;;;;5033024;28;20455;-77
2021/10/17 12:56:38;;;;;;;1.60;1.00;;;16.20;86.30;;;;;;5009156;28;20490;-77
2021/10/17 12:59:12;;;;;;;1.57;0.90;;;16.20;86.70;;;;;;5027417;28;20831;-78
2021/10/17 13:02:15;;;;;;;1.50;1.00;;;16.20;86.80;;;;;;5003937;28;20486;-77
2021/10/17 13:04:44;;;;;;;1.60;1.00;;;16.20;86.80;;;;;;5020270;28;20835;-78
2021/10/17 13:07:12;;;;;;;1.53;1.00;;;16.20;87.70;;;;;;5016536;28;20486;-76
2021/10/17 13:09:44;;;;;;;1.50;1.00;;;16.20;86.10;;;;;;5020828;28;20460;-77
2021/10/17 13:12:22;;;;;;;1.50;1.00;;;16.20;87.10;;;;;;5012434;28;20494;-77
2021/10/17 13:15:02;;;;;;;1.53;1.00;;;16.30;87.10;;;;;;5009582;28;20564;-77
2021/10/17 13:17:29;;;;;;;1.57;1.00;;;16.30;86.70;;;;;;5016028;28;20990;-76
2021/10/17 13:19:59;;;;;;;1.70;1.40;;;16.30;87.10;;;;;;5017315;28;20460;-77
2021/10/17 13:22:26;;;;;;;1.60;1.10;;;16.40;87.00;;;;;;5017735;28;20487;-75
2021/10/17 13:24:53;;;;;;;1.50;1.00;;;16.50;87.20;;;;;;5010566;28;20496;-77
2021/10/17 13:27:20;;;;;;;1.50;0.90;;;16.60;86.50;;;;;;5009381;28;20491;-76
2021/10/17 13:29:47;;;;;;;1.53;0.97;;;16.60;86.80;;;;;;5016801;28;20464;-76
2021/10/17 13:32:15;;;;;;;1.50;1.00;;;16.70;86.10;;;;;;5005372;28;21016;-77
2021/10/17 13:34:42;;;;;;;1.50;1.00;;;16.60;84.40;;;;;;5013527;28;20750;-77
2021/10/17 13:37:09;;;;;;;1.60;1.00;;;16.50;83.90;;;;;;5018768;28;20540;-76
2021/10/17 13:39:37;;;;;;;1.50;0.90;;;16.50;83.90;;;;;;5026839;28;20467;-75